sensor_id;sensor_type;location;lat;lon;timestamp;P1;durP1;ratioP1;P2;durP2;ratioP2
43088;SDS011;28709;52.030;5.652;2023-01-29T00:02:02;22.20;;;11.65;;
43088;SDS011;28709;52.030;5.652;2023-01-29T00:04:29;23.40;;;11.32;;
43088;SDS011;28709;52.030;5.652;2023-01-29T00:06:55;24.83;;;12.75;;
43088;SDS011;28709;52.030;5.652;2023-01-29T00:09:20;21.42;;;11.50;;
43088;SDS011;28709;52.030;5.652;2023-01-29T00:11:46;24.40;;;13.00;;
43088;SDS011;28709;52.030;5.652;2023-01-29T00:14:12;23.25;;;11.68;;
43088;SDS011;28709;52.030;5.652;2023-01-29T00:16:37;20.70;;;11.93;;
43088;SDS011;28709;52.030;5.652;2023-01-29T00:19:03;24.80;;;13.52;;
43088;SDS011;28709;52.030;5.652;2023-01-29T00:21:29;29.13;;;13.75;;
43088;SDS011;28709;52.030;5.652;2023-01-29T00:23:56;21.67;;;12.52;;
43088;SDS011;28709;52.030;5.652;2023-01-29T00:26:22;23.55;;;12.00;;
43088;SDS011;28709;52.030;5.652;2023-01-29T00:28:48;22.55;;;13.63;;
43088;SDS011;28709;52.030;5.652;2023-01-29T00:31:15;21.67;;;12.18;;
43088;SDS011;28709;52.030;5.652;2023-01-29T00:33:46;22.27;;;12.23;;
43088;SDS011;28709;52.030;5.652;2023-01-29T00:36:13;20.92;;;12.00;;
43088;SDS011;28709;52.030;5.652;2023-01-29T00:38:40;27.15;;;13.65;;
43088;SDS011;28709;52.030;5.652;2023-01-29T00:41:09;22.00;;;13.02;;
43088;SDS011;28709;52.030;5.652;2023-01-29T00:43:56;22.88;;;11.70;;
43088;SDS011;28709;52.030;5.652;2023-01-29T00:46:41;25.58;;;13.82;;
43088;SDS011;28709;52.030;5.652;2023-01-29T00:49:07;30.40;;;14.23;;
43088;SDS011;28709;52.030;5.652;2023-01-29T00:51:33;22.40;;;11.80;;
43088;SDS011;28709;52.030;5.652;2023-01-29T00:54:00;25.80;;;11.52;;
43088;SDS011;28709;52.030;5.652;2023-01-29T00:56:26;20.42;;;11.40;;
43088;SDS011;28709;52.030;5.652;2023-01-29T00:58:53;20.63;;;10.98;;
43088;SDS011;28709;52.030;5.652;2023-01-29T01:01:19;21.45;;;12.48;;
43088;SDS011;28709;52.030;5.652;2023-01-29T01:04:05;23.63;;;13.45;;
43088;SDS011;28709;52.030;5.652;2023-01-29T01:06:31;25.45;;;13.63;;
43088;SDS011;28709;52.030;5.652;2023-01-29T01:08:57;23.02;;;12.95;;
43088;SDS011;28709;52.030;5.652;2023-01-29T01:11:41;25.55;;;12.70;;
43088;SDS011;28709;52.030;5.652;2023-01-29T01:14:06;24.40;;;13.52;;
43088;SDS011;28709;52.030;5.652;2023-01-29T01:16:32;23.63;;;13.27;;
43088;SDS011;28709;52.030;5.652;2023-01-29T01:18:58;23.58;;;13.00;;
43088;SDS011;28709;52.030;5.652;2023-01-29T01:21:24;24.58;;;13.15;;
43088;SDS011;28709;52.030;5.652;2023-01-29T01:23:49;21.48;;;11.57;;
43088;SDS011;28709;52.030;5.652;2023-01-29T01:26:16;32.40;;;13.98;;
43088;SDS011;28709;52.030;5.652;2023-01-29T01:28:42;24.48;;;12.10;;
43088;SDS011;28709;52.030;5.652;2023-01-29T01:31:12;30.17;;;14.93;;
43088;SDS011;28709;52.030;5.652;2023-01-29T01:33:38;22.88;;;12.57;;
43088;SDS011;28709;52.030;5.652;2023-01-29T01:36:04;23.55;;;12.32;;
43088;SDS011;28709;52.030;5.652;2023-01-29T01:38:37;28.55;;;13.80;;
43088;SDS011;28709;52.030;5.652;2023-01-29T01:41:12;26.98;;;13.93;;
43088;SDS011;28709;52.030;5.652;2023-01-29T01:46:22;28.38;;;14.55;;
43088;SDS011;28709;52.030;5.652;2023-01-29T01:48:51;23.05;;;12.25;;
43088;SDS011;28709;52.030;5.652;2023-01-29T01:51:24;25.33;;;12.85;;
43088;SDS011;28709;52.030;5.652;2023-01-29T01:53:56;28.33;;;12.75;;
43088;SDS011;28709;52.030;5.652;2023-01-29T01:56:28;27.27;;;14.38;;
43088;SDS011;28709;52.030;5.652;2023-01-29T01:59:03;26.83;;;14.18;;
43088;SDS011;28709;52.030;5.652;2023-01-29T02:01:39;25.75;;;13.93;;
43088;SDS011;28709;52.030;5.652;2023-01-29T02:04:11;27.67;;;14.35;;
43088;SDS011;28709;52.030;5.652;2023-01-29T02:07:03;27.48;;;14.48;;
43088;SDS011;28709;52.030;5.652;2023-01-29T02:09:51;29.90;;;14.52;;
43088;SDS011;28709;52.030;5.652;2023-01-29T02:12:20;27.77;;;15.52;;
43088;SDS011;28709;52.030;5.652;2023-01-29T02:14:47;27.13;;;15.50;;
43088;SDS011;28709;52.030;5.652;2023-01-29T02:17:14;25.83;;;14.15;;
43088;SDS011;28709;52.030;5.652;2023-01-29T02:22:56;28.20;;;14.85;;
43088;SDS011;28709;52.030;5.652;2023-01-29T02:28:35;29.83;;;15.07;;
43088;SDS011;28709;52.030;5.652;2023-01-29T02:31:06;26.15;;;14.73;;
43088;SDS011;28709;52.030;5.652;2023-01-29T02:34:00;26.33;;;12.90;;
43088;SDS011;28709;52.030;5.652;2023-01-29T02:39:18;24.50;;;13.60;;
43088;SDS011;28709;52.030;5.652;2023-01-29T02:42:00;27.70;;;14.90;;
43088;SDS011;28709;52.030;5.652;2023-01-29T02:45:03;22.93;;;12.73;;
43088;SDS011;28709;52.030;5.652;2023-01-29T02:47:35;27.20;;;14.85;;
43088;SDS011;28709;52.030;5.652;2023-01-29T02:50:28;24.92;;;13.75;;
43088;SDS011;28709;52.030;5.652;2023-01-29T02:53:07;25.83;;;15.00;;
43088;SDS011;28709;52.030;5.652;2023-01-29T02:55:50;24.60;;;13.27;;
43088;SDS011;28709;52.030;5.652;2023-01-29T02:58:26;22.98;;;13.63;;
43088;SDS011;28709;52.030;5.652;2023-01-29T03:01:03;23.02;;;12.45;;
43088;SDS011;28709;52.030;5.652;2023-01-29T03:03:35;25.45;;;12.93;;
43088;SDS011;28709;52.030;5.652;2023-01-29T03:06:19;27.65;;;14.75;;
43088;SDS011;28709;52.030;5.652;2023-01-29T03:08:58;20.23;;;11.25;;
43088;SDS011;28709;52.030;5.652;2023-01-29T03:11:41;22.70;;;13.02;;
43088;SDS011;28709;52.030;5.652;2023-01-29T03:14:16;26.67;;;14.48;;
43088;SDS011;28709;52.030;5.652;2023-01-29T03:17:16;21.52;;;11.98;;
43088;SDS011;28709;52.030;5.652;2023-01-29T03:19:44;25.55;;;13.50;;
43088;SDS011;28709;52.030;5.652;2023-01-29T03:22:12;28.85;;;14.10;;
43088;SDS011;28709;52.030;5.652;2023-01-29T03:24:42;28.33;;;14.88;;
43088;SDS011;28709;52.030;5.652;2023-01-29T03:27:58;24.40;;;13.65;;
43088;SDS011;28709;52.030;5.652;2023-01-29T03:30:47;25.05;;;13.60;;
43088;SDS011;28709;52.030;5.652;2023-01-29T03:33:46;27.60;;;13.85;;
43088;SDS011;28709;52.030;5.652;2023-01-29T03:36:25;27.95;;;14.68;;
43088;SDS011;28709;52.030;5.652;2023-01-29T03:39:02;25.20;;;13.38;;
43088;SDS011;28709;52.030;5.652;2023-01-29T03:41:32;32.92;;;16.02;;
43088;SDS011;28709;52.030;5.652;2023-01-29T03:49:05;26.08;;;12.82;;
43088;SDS011;28709;52.030;5.652;2023-01-29T03:54:21;30.05;;;15.52;;
43088;SDS011;28709;52.030;5.652;2023-01-29T03:59:53;27.95;;;14.80;;
43088;SDS011;28709;52.030;5.652;2023-01-29T04:05:44;32.60;;;16.13;;
43088;SDS011;28709;52.030;5.652;2023-01-29T04:08:16;29.25;;;14.00;;
43088;SDS011;28709;52.030;5.652;2023-01-29T04:10:47;26.95;;;13.80;;
43088;SDS011;28709;52.030;5.652;2023-01-29T04:13:15;28.45;;;15.88;;
43088;SDS011;28709;52.030;5.652;2023-01-29T04:15:46;30.65;;;15.60;;
43088;SDS011;28709;52.030;5.652;2023-01-29T04:18:17;31.25;;;15.93;;
43088;SDS011;28709;52.030;5.652;2023-01-29T04:20:42;29.23;;;14.85;;
43088;SDS011;28709;52.030;5.652;2023-01-29T04:23:18;31.35;;;16.92;;
43088;SDS011;28709;52.030;5.652;2023-01-29T04:25:45;31.38;;;16.38;;
43088;SDS011;28709;52.030;5.652;2023-01-29T04:28:50;32.83;;;16.90;;
43088;SDS011;28709;52.030;5.652;2023-01-29T04:31:18;29.23;;;15.85;;
43088;SDS011;28709;52.030;5.652;2023-01-29T04:36:32;34.38;;;17.42;;
43088;SDS011;28709;52.030;5.652;2023-01-29T04:39:09;33.08;;;16.98;;
43088;SDS011;28709;52.030;5.652;2023-01-29T04:41:56;31.10;;;16.73;;
43088;SDS011;28709;52.030;5.652;2023-01-29T04:57:53;33.35;;;16.85;;
43088;SDS011;28709;52.030;5.652;2023-01-29T05:01:05;30.10;;;16.05;;
43088;SDS011;28709;52.030;5.652;2023-01-29T05:03:25;25.70;;;14.52;;
43088;SDS011;28709;52.030;5.652;2023-01-29T05:05:51;31.60;;;15.88;;
43088;SDS011;28709;52.030;5.652;2023-01-29T05:08:20;28.38;;;16.27;;
43088;SDS011;28709;52.030;5.652;2023-01-29T05:10:49;28.27;;;15.57;;
43088;SDS011;28709;52.030;5.652;2023-01-29T05:13:16;27.77;;;14.75;;
43088;SDS011;28709;52.030;5.652;2023-01-29T05:15:48;28.23;;;15.95;;
43088;SDS011;28709;52.030;5.652;2023-01-29T05:18:27;31.42;;;16.80;;
43088;SDS011;28709;52.030;5.652;2023-01-29T05:20:54;32.10;;;15.38;;
43088;SDS011;28709;52.030;5.652;2023-01-29T05:23:22;29.88;;;15.25;;
43088;SDS011;28709;52.030;5.652;2023-01-29T05:25:48;29.58;;;15.85;;
43088;SDS011;28709;52.030;5.652;2023-01-29T05:28:15;24.85;;;13.85;;
43088;SDS011;28709;52.030;5.652;2023-01-29T05:30:45;27.42;;;14.77;;
43088;SDS011;28709;52.030;5.652;2023-01-29T05:33:14;24.17;;;13.90;;
43088;SDS011;28709;52.030;5.652;2023-01-29T05:35:53;27.42;;;15.82;;
43088;SDS011;28709;52.030;5.652;2023-01-29T05:38:20;24.70;;;14.02;;
43088;SDS011;28709;52.030;5.652;2023-01-29T05:40:46;30.05;;;15.68;;
43088;SDS011;28709;52.030;5.652;2023-01-29T05:43:16;30.80;;;15.63;;
43088;SDS011;28709;52.030;5.652;2023-01-29T05:45:50;25.13;;;13.50;;
43088;SDS011;28709;52.030;5.652;2023-01-29T05:48:20;23.40;;;12.82;;
43088;SDS011;28709;52.030;5.652;2023-01-29T05:50:46;27.90;;;13.65;;
43088;SDS011;28709;52.030;5.652;2023-01-29T05:53:12;25.75;;;13.85;;
43088;SDS011;28709;52.030;5.652;2023-01-29T05:55:38;24.63;;;13.13;;
43088;SDS011;28709;52.030;5.652;2023-01-29T05:58:04;23.42;;;12.70;;
43088;SDS011;28709;52.030;5.652;2023-01-29T06:00:30;25.33;;;12.88;;
43088;SDS011;28709;52.030;5.652;2023-01-29T06:02:57;30.98;;;15.75;;
43088;SDS011;28709;52.030;5.652;2023-01-29T06:05:22;27.13;;;15.45;;
43088;SDS011;28709;52.030;5.652;2023-01-29T06:07:48;24.85;;;14.40;;
43088;SDS011;28709;52.030;5.652;2023-01-29T06:10:14;27.08;;;15.02;;
43088;SDS011;28709;52.030;5.652;2023-01-29T06:12:41;25.20;;;14.38;;
43088;SDS011;28709;52.030;5.652;2023-01-29T06:15:07;28.40;;;17.48;;
43088;SDS011;28709;52.030;5.652;2023-01-29T06:17:34;28.80;;;16.80;;
43088;SDS011;28709;52.030;5.652;2023-01-29T06:20:00;28.83;;;14.75;;
43088;SDS011;28709;52.030;5.652;2023-01-29T06:22:27;32.08;;;17.60;;
43088;SDS011;28709;52.030;5.652;2023-01-29T06:24:53;27.38;;;15.90;;
43088;SDS011;28709;52.030;5.652;2023-01-29T06:27:18;32.38;;;17.55;;
43088;SDS011;28709;52.030;5.652;2023-01-29T06:29:44;31.52;;;17.52;;
43088;SDS011;28709;52.030;5.652;2023-01-29T06:32:10;27.73;;;16.15;;
43088;SDS011;28709;52.030;5.652;2023-01-29T06:34:35;27.83;;;16.35;;
43088;SDS011;28709;52.030;5.652;2023-01-29T06:37:01;29.40;;;17.27;;
43088;SDS011;28709;52.030;5.652;2023-01-29T06:39:27;28.85;;;17.00;;
43088;SDS011;28709;52.030;5.652;2023-01-29T06:41:52;30.25;;;16.65;;
43088;SDS011;28709;52.030;5.652;2023-01-29T06:44:18;34.10;;;17.88;;
43088;SDS011;28709;52.030;5.652;2023-01-29T06:46:43;27.63;;;16.38;;
43088;SDS011;28709;52.030;5.652;2023-01-29T06:49:09;27.48;;;15.85;;
43088;SDS011;28709;52.030;5.652;2023-01-29T06:51:35;27.52;;;16.35;;
43088;SDS011;28709;52.030;5.652;2023-01-29T06:54:01;55.20;;;16.88;;
43088;SDS011;28709;52.030;5.652;2023-01-29T06:56:26;26.55;;;15.07;;
43088;SDS011;28709;52.030;5.652;2023-01-29T06:58:52;23.60;;;14.13;;
43088;SDS011;28709;52.030;5.652;2023-01-29T07:01:18;30.48;;;17.75;;
43088;SDS011;28709;52.030;5.652;2023-01-29T07:03:43;32.10;;;17.35;;
43088;SDS011;28709;52.030;5.652;2023-01-29T07:06:09;31.50;;;17.98;;
43088;SDS011;28709;52.030;5.652;2023-01-29T07:08:36;31.13;;;18.10;;
43088;SDS011;28709;52.030;5.652;2023-01-29T07:11:02;31.10;;;17.50;;
43088;SDS011;28709;52.030;5.652;2023-01-29T07:13:29;27.15;;;15.93;;
43088;SDS011;28709;52.030;5.652;2023-01-29T07:15:58;30.65;;;17.85;;
43088;SDS011;28709;52.030;5.652;2023-01-29T07:18:25;30.50;;;17.40;;
43088;SDS011;28709;52.030;5.652;2023-01-29T07:20:51;34.05;;;18.45;;
43088;SDS011;28709;52.030;5.652;2023-01-29T07:23:17;32.15;;;18.95;;
43088;SDS011;28709;52.030;5.652;2023-01-29T07:25:42;33.70;;;17.70;;
43088;SDS011;28709;52.030;5.652;2023-01-29T07:28:08;31.95;;;18.08;;
43088;SDS011;28709;52.030;5.652;2023-01-29T07:30:34;30.65;;;17.33;;
43088;SDS011;28709;52.030;5.652;2023-01-29T07:33:03;33.55;;;18.25;;
43088;SDS011;28709;52.030;5.652;2023-01-29T07:35:30;32.03;;;17.42;;
43088;SDS011;28709;52.030;5.652;2023-01-29T07:37:56;27.10;;;16.13;;
43088;SDS011;28709;52.030;5.652;2023-01-29T07:40:22;27.48;;;16.55;;
43088;SDS011;28709;52.030;5.652;2023-01-29T07:42:48;30.48;;;16.85;;
43088;SDS011;28709;52.030;5.652;2023-01-29T07:45:13;26.98;;;16.08;;
43088;SDS011;28709;52.030;5.652;2023-01-29T07:47:39;28.75;;;15.27;;
43088;SDS011;28709;52.030;5.652;2023-01-29T07:50:05;28.63;;;15.93;;
43088;SDS011;28709;52.030;5.652;2023-01-29T07:52:31;26.92;;;16.15;;
43088;SDS011;28709;52.030;5.652;2023-01-29T07:54:57;31.02;;;15.32;;
43088;SDS011;28709;52.030;5.652;2023-01-29T07:57:23;26.88;;;15.00;;
43088;SDS011;28709;52.030;5.652;2023-01-29T07:59:49;32.25;;;16.88;;
43088;SDS011;28709;52.030;5.652;2023-01-29T08:02:15;29.60;;;16.45;;
43088;SDS011;28709;52.030;5.652;2023-01-29T08:04:40;27.70;;;15.73;;
43088;SDS011;28709;52.030;5.652;2023-01-29T08:07:06;28.15;;;16.35;;
43088;SDS011;28709;52.030;5.652;2023-01-29T08:09:33;30.27;;;16.17;;
43088;SDS011;28709;52.030;5.652;2023-01-29T08:11:59;29.48;;;15.77;;
43088;SDS011;28709;52.030;5.652;2023-01-29T08:14:25;26.40;;;14.73;;
43088;SDS011;28709;52.030;5.652;2023-01-29T08:16:52;28.02;;;15.40;;
43088;SDS011;28709;52.030;5.652;2023-01-29T08:19:17;28.15;;;15.50;;
43088;SDS011;28709;52.030;5.652;2023-01-29T08:21:43;28.20;;;14.60;;
43088;SDS011;28709;52.030;5.652;2023-01-29T08:24:09;27.98;;;15.18;;
43088;SDS011;28709;52.030;5.652;2023-01-29T08:26:34;29.65;;;15.98;;
43088;SDS011;28709;52.030;5.652;2023-01-29T08:29:00;28.73;;;14.80;;
43088;SDS011;28709;52.030;5.652;2023-01-29T08:31:26;28.05;;;15.68;;
43088;SDS011;28709;52.030;5.652;2023-01-29T08:33:55;30.02;;;15.70;;
43088;SDS011;28709;52.030;5.652;2023-01-29T08:36:20;30.65;;;16.33;;
43088;SDS011;28709;52.030;5.652;2023-01-29T08:38:46;30.08;;;15.82;;
43088;SDS011;28709;52.030;5.652;2023-01-29T08:41:12;35.30;;;17.10;;
43088;SDS011;28709;52.030;5.652;2023-01-29T08:43:37;30.50;;;16.73;;
43088;SDS011;28709;52.030;5.652;2023-01-29T08:46:03;30.15;;;17.00;;
43088;SDS011;28709;52.030;5.652;2023-01-29T08:48:30;30.52;;;16.73;;
43088;SDS011;28709;52.030;5.652;2023-01-29T08:50:56;30.70;;;17.58;;
43088;SDS011;28709;52.030;5.652;2023-01-29T08:53:23;25.73;;;15.25;;
43088;SDS011;28709;52.030;5.652;2023-01-29T08:55:50;29.52;;;16.05;;
43088;SDS011;28709;52.030;5.652;2023-01-29T08:58:16;32.47;;;17.83;;
43088;SDS011;28709;52.030;5.652;2023-01-29T09:00:42;30.25;;;15.55;;
43088;SDS011;28709;52.030;5.652;2023-01-29T09:03:08;26.95;;;14.07;;
43088;SDS011;28709;52.030;5.652;2023-01-29T09:05:35;30.63;;;16.63;;
43088;SDS011;28709;52.030;5.652;2023-01-29T09:08:02;28.13;;;15.75;;
43088;SDS011;28709;52.030;5.652;2023-01-29T09:10:28;29.38;;;16.10;;
43088;SDS011;28709;52.030;5.652;2023-01-29T09:12:54;29.52;;;16.17;;
43088;SDS011;28709;52.030;5.652;2023-01-29T09:15:20;26.50;;;15.25;;
43088;SDS011;28709;52.030;5.652;2023-01-29T09:17:45;24.60;;;14.27;;
43088;SDS011;28709;52.030;5.652;2023-01-29T09:20:13;26.38;;;14.98;;
43088;SDS011;28709;52.030;5.652;2023-01-29T09:22:39;28.88;;;14.88;;
43088;SDS011;28709;52.030;5.652;2023-01-29T09:25:05;26.40;;;14.68;;
43088;SDS011;28709;52.030;5.652;2023-01-29T09:27:31;24.73;;;13.73;;
43088;SDS011;28709;52.030;5.652;2023-01-29T09:29:56;23.73;;;14.18;;
43088;SDS011;28709;52.030;5.652;2023-01-29T09:32:22;24.20;;;14.20;;
43088;SDS011;28709;52.030;5.652;2023-01-29T09:34:48;22.05;;;12.25;;
43088;SDS011;28709;52.030;5.652;2023-01-29T09:37:13;23.55;;;13.00;;
43088;SDS011;28709;52.030;5.652;2023-01-29T09:39:41;28.02;;;13.73;;
43088;SDS011;28709;52.030;5.652;2023-01-29T09:42:50;22.10;;;13.15;;
43088;SDS011;28709;52.030;5.652;2023-01-29T09:48:08;26.57;;;13.03;;
43088;SDS011;28709;52.030;5.652;2023-01-29T09:50:37;28.13;;;13.10;;
43088;SDS011;28709;52.030;5.652;2023-01-29T09:53:42;22.35;;;12.68;;
43088;SDS011;28709;52.030;5.652;2023-01-29T09:56:13;24.08;;;13.95;;
43088;SDS011;28709;52.030;5.652;2023-01-29T09:58:43;19.13;;;12.05;;
43088;SDS011;28709;52.030;5.652;2023-01-29T10:01:21;22.25;;;12.30;;
43088;SDS011;28709;52.030;5.652;2023-01-29T10:14:47;20.17;;;11.57;;
43088;SDS011;28709;52.030;5.652;2023-01-29T10:19:46;20.55;;;10.80;;
43088;SDS011;28709;52.030;5.652;2023-01-29T10:22:44;20.73;;;11.75;;
43088;SDS011;28709;52.030;5.652;2023-01-29T10:25:20;21.25;;;11.77;;
43088;SDS011;28709;52.030;5.652;2023-01-29T10:27:51;18.20;;;11.35;;
43088;SDS011;28709;52.030;5.652;2023-01-29T10:30:36;19.42;;;10.52;;
43088;SDS011;28709;52.030;5.652;2023-01-29T10:33:05;19.48;;;11.63;;
43088;SDS011;28709;52.030;5.652;2023-01-29T10:35:38;18.50;;;10.82;;
43088;SDS011;28709;52.030;5.652;2023-01-29T10:38:20;19.42;;;10.10;;
43088;SDS011;28709;52.030;5.652;2023-01-29T10:41:11;21.98;;;11.00;;
43088;SDS011;28709;52.030;5.652;2023-01-29T10:57:45;18.07;;;10.03;;
43088;SDS011;28709;52.030;5.652;2023-01-29T11:02:50;21.67;;;11.60;;
43088;SDS011;28709;52.030;5.652;2023-01-29T11:05:30;22.20;;;11.00;;
43088;SDS011;28709;52.030;5.652;2023-01-29T11:08:09;16.05;;;9.70;;
43088;SDS011;28709;52.030;5.652;2023-01-29T11:10:40;20.92;;;11.13;;
43088;SDS011;28709;52.030;5.652;2023-01-29T11:13:13;20.35;;;11.40;;
43088;SDS011;28709;52.030;5.652;2023-01-29T11:15:40;21.63;;;11.48;;
43088;SDS011;28709;52.030;5.652;2023-01-29T11:18:07;18.70;;;10.82;;
43088;SDS011;28709;52.030;5.652;2023-01-29T11:20:37;19.25;;;10.00;;
43088;SDS011;28709;52.030;5.652;2023-01-29T11:23:07;19.80;;;11.77;;
43088;SDS011;28709;52.030;5.652;2023-01-29T11:25:52;18.77;;;11.70;;
43088;SDS011;28709;52.030;5.652;2023-01-29T11:31:13;19.73;;;11.98;;
43088;SDS011;28709;52.030;5.652;2023-01-29T11:34:32;20.95;;;12.45;;
43088;SDS011;28709;52.030;5.652;2023-01-29T11:36:48;22.60;;;13.07;;
43088;SDS011;28709;52.030;5.652;2023-01-29T11:39:22;19.65;;;11.55;;
43088;SDS011;28709;52.030;5.652;2023-01-29T11:44:29;21.10;;;12.40;;
43088;SDS011;28709;52.030;5.652;2023-01-29T11:47:24;21.85;;;12.95;;
43088;SDS011;28709;52.030;5.652;2023-01-29T11:49:53;25.80;;;14.05;;
43088;SDS011;28709;52.030;5.652;2023-01-29T11:52:21;23.45;;;13.35;;
43088;SDS011;28709;52.030;5.652;2023-01-29T11:55:26;22.50;;;13.35;;
43088;SDS011;28709;52.030;5.652;2023-01-29T12:00:45;23.42;;;13.85;;
43088;SDS011;28709;52.030;5.652;2023-01-29T12:03:21;23.52;;;13.18;;
43088;SDS011;28709;52.030;5.652;2023-01-29T12:06:11;25.00;;;13.73;;
43088;SDS011;28709;52.030;5.652;2023-01-29T12:08:52;26.65;;;15.65;;
43088;SDS011;28709;52.030;5.652;2023-01-29T12:11:24;26.05;;;15.50;;
43088;SDS011;28709;52.030;5.652;2023-01-29T12:13:53;29.08;;;16.67;;
43088;SDS011;28709;52.030;5.652;2023-01-29T12:16:25;28.80;;;15.05;;
43088;SDS011;28709;52.030;5.652;2023-01-29T12:18:57;23.88;;;15.45;;
43088;SDS011;28709;52.030;5.652;2023-01-29T12:21:42;23.10;;;14.32;;
43088;SDS011;28709;52.030;5.652;2023-01-29T12:24:21;27.63;;;15.90;;
43088;SDS011;28709;52.030;5.652;2023-01-29T12:30:12;32.20;;;17.17;;
43088;SDS011;28709;52.030;5.652;2023-01-29T12:38:01;33.35;;;17.05;;
43088;SDS011;28709;52.030;5.652;2023-01-29T12:41:00;31.08;;;17.05;;
43088;SDS011;28709;52.030;5.652;2023-01-29T12:43:50;26.88;;;16.00;;
43088;SDS011;28709;52.030;5.652;2023-01-29T12:46:25;27.58;;;16.70;;
43088;SDS011;28709;52.030;5.652;2023-01-29T12:48:53;28.75;;;15.48;;
43088;SDS011;28709;52.030;5.652;2023-01-29T12:51:22;27.48;;;15.32;;
43088;SDS011;28709;52.030;5.652;2023-01-29T12:59:01;29.17;;;16.13;;
43088;SDS011;28709;52.030;5.652;2023-01-29T13:01:39;29.35;;;18.05;;
43088;SDS011;28709;52.030;5.652;2023-01-29T13:04:20;40.60;;;24.48;;
43088;SDS011;28709;52.030;5.652;2023-01-29T13:07:04;27.00;;;16.33;;
43088;SDS011;28709;52.030;5.652;2023-01-29T13:09:45;31.65;;;18.20;;
43088;SDS011;28709;52.030;5.652;2023-01-29T13:12:18;28.88;;;17.05;;
43088;SDS011;28709;52.030;5.652;2023-01-29T13:14:53;31.48;;;17.92;;
43088;SDS011;28709;52.030;5.652;2023-01-29T13:20:11;28.73;;;16.80;;
43088;SDS011;28709;52.030;5.652;2023-01-29T13:22:41;35.70;;;19.45;;
43088;SDS011;28709;52.030;5.652;2023-01-29T13:25:13;30.95;;;16.75;;
43088;SDS011;28709;52.030;5.652;2023-01-29T13:27:42;31.80;;;18.40;;
43088;SDS011;28709;52.030;5.652;2023-01-29T13:30:22;32.40;;;18.92;;
43088;SDS011;28709;52.030;5.652;2023-01-29T13:32:53;30.15;;;16.48;;
43088;SDS011;28709;52.030;5.652;2023-01-29T13:35:32;39.38;;;20.77;;
43088;SDS011;28709;52.030;5.652;2023-01-29T13:38:04;30.13;;;17.40;;
43088;SDS011;28709;52.030;5.652;2023-01-29T13:40:31;31.33;;;17.30;;
43088;SDS011;28709;52.030;5.652;2023-01-29T13:42:58;31.52;;;18.25;;
43088;SDS011;28709;52.030;5.652;2023-01-29T13:50:43;30.38;;;17.05;;
43088;SDS011;28709;52.030;5.652;2023-01-29T13:53:18;30.33;;;18.20;;
43088;SDS011;28709;52.030;5.652;2023-01-29T13:55:51;30.48;;;16.67;;
43088;SDS011;28709;52.030;5.652;2023-01-29T13:58:59;24.45;;;14.30;;
43088;SDS011;28709;52.030;5.652;2023-01-29T14:01:08;32.63;;;17.80;;
43088;SDS011;28709;52.030;5.652;2023-01-29T14:03:43;31.67;;;16.52;;
43088;SDS011;28709;52.030;5.652;2023-01-29T14:06:34;29.40;;;17.05;;
43088;SDS011;28709;52.030;5.652;2023-01-29T14:12:01;32.10;;;17.90;;
43088;SDS011;28709;52.030;5.652;2023-01-29T14:17:12;29.70;;;15.85;;
43088;SDS011;28709;52.030;5.652;2023-01-29T14:19:47;29.30;;;16.85;;
43088;SDS011;28709;52.030;5.652;2023-01-29T14:22:21;31.88;;;16.55;;
43088;SDS011;28709;52.030;5.652;2023-01-29T14:25:14;28.98;;;16.42;;
43088;SDS011;28709;52.030;5.652;2023-01-29T14:27:40;29.50;;;16.85;;
43088;SDS011;28709;52.030;5.652;2023-01-29T14:30:12;31.88;;;18.08;;
43088;SDS011;28709;52.030;5.652;2023-01-29T14:32:42;33.03;;;17.27;;
43088;SDS011;28709;52.030;5.652;2023-01-29T14:35:18;30.58;;;17.70;;
43088;SDS011;28709;52.030;5.652;2023-01-29T14:37:47;32.50;;;16.55;;
43088;SDS011;28709;52.030;5.652;2023-01-29T14:53:21;41.90;;;20.70;;
43088;SDS011;28709;52.030;5.652;2023-01-29T14:56:14;36.20;;;19.20;;
43088;SDS011;28709;52.030;5.652;2023-01-29T15:01:36;32.63;;;16.70;;
43088;SDS011;28709;52.030;5.652;2023-01-29T15:04:04;33.17;;;17.58;;
43088;SDS011;28709;52.030;5.652;2023-01-29T15:06:43;29.63;;;17.15;;
43088;SDS011;28709;52.030;5.652;2023-01-29T15:09:38;37.03;;;18.48;;
43088;SDS011;28709;52.030;5.652;2023-01-29T15:12:12;35.47;;;18.88;;
43088;SDS011;28709;52.030;5.652;2023-01-29T15:17:22;28.55;;;15.40;;
43088;SDS011;28709;52.030;5.652;2023-01-29T15:19:52;28.88;;;17.27;;
43088;SDS011;28709;52.030;5.652;2023-01-29T15:25:12;36.30;;;19.40;;
43088;SDS011;28709;52.030;5.652;2023-01-29T15:27:40;28.27;;;16.35;;
43088;SDS011;28709;52.030;5.652;2023-01-29T15:30:06;34.13;;;18.85;;
43088;SDS011;28709;52.030;5.652;2023-01-29T15:32:43;30.42;;;17.13;;
43088;SDS011;28709;52.030;5.652;2023-01-29T15:40:26;31.50;;;17.90;;
43088;SDS011;28709;52.030;5.652;2023-01-29T15:42:52;33.97;;;20.15;;
43088;SDS011;28709;52.030;5.652;2023-01-29T15:45:21;37.92;;;20.08;;
43088;SDS011;28709;52.030;5.652;2023-01-29T15:48:00;28.90;;;17.10;;
43088;SDS011;28709;52.030;5.652;2023-01-29T15:50:33;37.83;;;19.90;;
43088;SDS011;28709;52.030;5.652;2023-01-29T15:53:02;39.72;;;19.27;;
43088;SDS011;28709;52.030;5.652;2023-01-29T15:55:30;33.15;;;18.40;;
43088;SDS011;28709;52.030;5.652;2023-01-29T15:57:57;29.80;;;17.25;;
43088;SDS011;28709;52.030;5.652;2023-01-29T16:00:25;31.75;;;18.15;;
43088;SDS011;28709;52.030;5.652;2023-01-29T16:02:52;39.08;;;19.38;;
43088;SDS011;28709;52.030;5.652;2023-01-29T16:05:20;34.53;;;18.98;;
43088;SDS011;28709;52.030;5.652;2023-01-29T16:07:51;30.98;;;17.30;;
43088;SDS011;28709;52.030;5.652;2023-01-29T16:10:19;33.05;;;18.42;;
43088;SDS011;28709;52.030;5.652;2023-01-29T16:12:48;31.05;;;18.83;;
43088;SDS011;28709;52.030;5.652;2023-01-29T16:18:23;29.50;;;17.48;;
43088;SDS011;28709;52.030;5.652;2023-01-29T16:20:59;36.00;;;18.05;;
43088;SDS011;28709;52.030;5.652;2023-01-29T16:23:35;35.17;;;18.67;;
43088;SDS011;28709;52.030;5.652;2023-01-29T16:26:12;37.95;;;20.02;;
43088;SDS011;28709;52.030;5.652;2023-01-29T16:28:43;33.80;;;17.70;;
43088;SDS011;28709;52.030;5.652;2023-01-29T16:31:11;33.47;;;17.13;;
43088;SDS011;28709;52.030;5.652;2023-01-29T16:33:39;34.03;;;17.38;;
43088;SDS011;28709;52.030;5.652;2023-01-29T16:36:09;37.88;;;20.45;;
43088;SDS011;28709;52.030;5.652;2023-01-29T16:38:45;38.15;;;18.67;;
43088;SDS011;28709;52.030;5.652;2023-01-29T16:48:55;35.47;;;19.25;;
43088;SDS011;28709;52.030;5.652;2023-01-29T16:51:25;35.63;;;17.75;;
43088;SDS011;28709;52.030;5.652;2023-01-29T16:54:11;37.75;;;20.10;;
43088;SDS011;28709;52.030;5.652;2023-01-29T16:56:45;34.90;;;18.70;;
43088;SDS011;28709;52.030;5.652;2023-01-29T16:59:15;33.22;;;18.13;;
43088;SDS011;28709;52.030;5.652;2023-01-29T17:02:00;32.38;;;17.83;;
43088;SDS011;28709;52.030;5.652;2023-01-29T17:04:27;36.20;;;18.33;;
43088;SDS011;28709;52.030;5.652;2023-01-29T17:06:54;37.42;;;18.55;;
43088;SDS011;28709;52.030;5.652;2023-01-29T17:09:23;34.10;;;17.27;;
43088;SDS011;28709;52.030;5.652;2023-01-29T17:11:57;33.85;;;18.42;;
43088;SDS011;28709;52.030;5.652;2023-01-29T17:14:25;31.95;;;16.70;;
43088;SDS011;28709;52.030;5.652;2023-01-29T17:16:54;38.75;;;18.08;;